Time;durP1;ratioP1;P1;durP2;ratioP2;P2;SDS_P1;SDS_P2;PMS_P1;PMS_P2;Temp;Humidity;BMP_temperature;BMP_pressure;BME280_temperature;BME280_humidity;BME280_pressure;Samples;Min_cycle;Max_cycle;Signal;HPM_P1;HPM_P2
2023/12/02 00:00:25;;;;;;;25.35;16.30;;;1.00;99.90;;;;;;5095180;28;20488;-71
2023/12/02 00:02:51;;;;;;;27.65;17.15;;;1.00;99.90;;;;;;5095141;28;20127;-66
2023/12/02 00:05:18;;;;;;;27.00;18.33;;;1.00;99.90;;;;;;5094861;28;20043;-71
2023/12/02 00:07:45;;;;;;;26.90;17.70;;;1.10;99.90;;;;;;5095128;28;20071;-71
2023/12/02 00:10:12;;;;;;;24.38;17.58;;;1.00;99.90;;;;;;5095274;28;20044;-66
2023/12/02 00:12:39;;;;;;;25.13;16.25;;;1.00;99.90;;;;;;5095200;28;20093;-71
2023/12/02 00:15:09;;;;;;;21.60;14.80;;;1.00;99.90;;;;;;5094977;28;20040;-70
2023/12/02 00:17:36;;;;;;;18.38;13.77;;;1.00;99.90;;;;;;5093191;28;20143;-71
2023/12/02 00:20:02;;;;;;;23.45;15.02;;;0.90;99.90;;;;;;5094640;28;20366;-70
2023/12/02 00:22:29;;;;;;;21.23;14.98;;;0.90;99.90;;;;;;5094290;28;20064;-65
2023/12/02 00:24:56;;;;;;;22.50;13.80;;;0.90;99.90;;;;;;5094811;28;20039;-71
2023/12/02 00:27:23;;;;;;;19.80;13.75;;;0.90;99.90;;;;;;5094672;28;20473;-71
2023/12/02 00:29:50;;;;;;;20.73;13.32;;;0.90;99.90;;;;;;5094263;28;20032;-66
2023/12/02 00:32:17;;;;;;;21.92;14.05;;;0.90;99.90;;;;;;5094519;28;20066;-71
2023/12/02 00:34:55;;;;;;;20.33;12.18;;;0.90;99.90;;;;;;5094845;28;20421;-65
2023/12/02 00:37:22;;;;;;;15.48;11.07;;;0.80;99.90;;;;;;5093965;28;20055;-65
2023/12/02 00:39:48;;;;;;;17.92;11.65;;;0.80;99.90;;;;;;5093806;28;20096;-65
2023/12/02 00:42:15;;;;;;;19.83;12.43;;;0.80;99.90;;;;;;5093822;28;20040;-65
2023/12/02 00:44:42;;;;;;;17.45;12.15;;;0.80;99.90;;;;;;5094120;28;20469;-65
2023/12/02 00:47:09;;;;;;;19.60;12.25;;;0.80;99.90;;;;;;5093429;28;20055;-65
2023/12/02 00:49:36;;;;;;;18.58;12.88;;;0.90;99.90;;;;;;5094032;28;20380;-71
2023/12/02 00:52:02;;;;;;;21.20;12.70;;;0.90;99.90;;;;;;5093854;28;20479;-66
2023/12/02 00:54:33;;;;;;;18.25;12.57;;;1.00;99.90;;;;;;5093016;28;20121;-70
2023/12/02 00:57:01;;;;;;;16.50;11.45;;;1.00;99.90;;;;;;5093986;28;20520;-65
2023/12/02 00:59:27;;;;;;;17.58;11.80;;;1.00;99.90;;;;;;5093522;28;20102;-66
2023/12/02 01:01:54;;;;;;;17.60;12.05;;;1.00;99.90;;;;;;5092560;28;20041;-71
2023/12/02 01:04:21;;;;;;;20.60;13.18;;;1.00;99.90;;;;;;5094241;28;20040;-65
2023/12/02 01:06:48;;;;;;;21.42;13.18;;;1.00;99.90;;;;;;5094099;28;20119;-70
2023/12/02 01:09:15;;;;;;;22.13;13.43;;;1.00;99.90;;;;;;5093777;28;20101;-71
2023/12/02 01:11:42;;;;;;;20.80;13.63;;;1.00;99.90;;;;;;5093960;28;20047;-71
2023/12/02 01:14:08;;;;;;;20.77;12.48;;;1.10;99.90;;;;;;5093877;28;20040;-65
2023/12/02 01:16:35;;;;;;;21.30;13.77;;;1.10;99.90;;;;;;5092386;28;20048;-67
2023/12/02 01:19:02;;;;;;;21.05;13.90;;;1.10;99.90;;;;;;5092210;28;20051;-67
2023/12/02 01:21:29;;;;;;;24.20;13.50;;;1.10;99.90;;;;;;5093468;28;20044;-66
2023/12/02 01:23:57;;;;;;;20.30;13.73;;;1.10;99.90;;;;;;5093258;28;20378;-71
2023/12/02 01:26:24;;;;;;;21.30;13.70;;;1.10;99.90;;;;;;5092044;28;20139;-71
2023/12/02 01:28:51;;;;;;;21.75;14.15;;;1.10;99.90;;;;;;5093359;28;20047;-70
2023/12/02 01:31:18;;;;;;;20.88;13.60;;;1.10;99.90;;;;;;5093473;28;20048;-66
2023/12/02 01:33:44;;;;;;;17.50;12.40;;;1.10;99.90;;;;;;5093362;28;20040;-71
2023/12/02 01:36:12;;;;;;;17.35;10.85;;;1.00;99.90;;;;;;5093962;28;20496;-71
2023/12/02 01:38:39;;;;;;;16.95;12.05;;;1.00;99.90;;;;;;5091854;28;20040;-71
2023/12/02 01:41:05;;;;;;;15.50;11.65;;;0.90;99.90;;;;;;5093407;28;20143;-65
2023/12/02 01:43:32;;;;;;;20.80;11.95;;;0.90;99.90;;;;;;5093011;28;20040;-65
2023/12/02 01:45:59;;;;;;;19.17;11.65;;;0.90;99.90;;;;;;5091974;28;20128;-70
2023/12/02 01:48:26;;;;;;;17.27;12.20;;;0.80;99.90;;;;;;5093401;28;20040;-71
2023/12/02 01:50:53;;;;;;;19.88;12.80;;;0.80;99.90;;;;;;5096440;28;20560;-71
2023/12/02 01:53:20;;;;;;;20.40;12.75;;;0.70;99.90;;;;;;5095846;28;20044;-70
2023/12/02 01:55:47;;;;;;;19.95;13.27;;;0.70;99.90;;;;;;5097419;28;20401;-71
2023/12/02 01:58:14;;;;;;;19.33;12.90;;;0.70;99.90;;;;;;5097155;28;20413;-66
2023/12/02 02:00:41;;;;;;;20.38;13.20;;;0.70;99.90;;;;;;5078944;28;20052;-66
2023/12/02 02:03:08;;;;;;;18.63;13.02;;;0.70;99.90;;;;;;5097874;28;20047;-66
2023/12/02 02:05:35;;;;;;;20.15;12.70;;;0.80;99.90;;;;;;5096168;28;20473;-66
2023/12/02 02:08:02;;;;;;;20.02;11.95;;;0.80;99.90;;;;;;5097152;28;20469;-66
2023/12/02 02:10:29;;;;;;;23.77;13.95;;;0.90;99.90;;;;;;5097619;28;20094;-66
2023/12/02 02:12:55;;;;;;;19.92;13.60;;;0.90;99.90;;;;;;5097627;28;20039;-65
2023/12/02 02:15:22;;;;;;;19.95;13.30;;;0.90;99.90;;;;;;5079261;28;20047;-66
2023/12/02 02:17:49;;;;;;;19.25;12.82;;;1.00;99.90;;;;;;5096839;28;20040;-65
2023/12/02 02:20:16;;;;;;;19.25;12.15;;;1.10;99.90;;;;;;5096863;28;20044;-65
2023/12/02 02:22:42;;;;;;;19.23;13.35;;;1.10;99.90;;;;;;5096930;28;20161;-65
2023/12/02 02:25:09;;;;;;;20.45;13.93;;;1.10;99.90;;;;;;5097048;28;20040;-65
2023/12/02 02:27:36;;;;;;;19.40;13.82;;;1.10;99.90;;;;;;5095769;28;20040;-65
2023/12/02 02:30:03;;;;;;;22.77;14.20;;;1.10;99.90;;;;;;5096920;28;20127;-65
2023/12/02 02:32:30;;;;;;;21.63;13.45;;;1.20;99.90;;;;;;5096567;28;20105;-65
2023/12/02 02:34:56;;;;;;;20.33;13.82;;;1.10;99.90;;;;;;5095214;28;20484;-65
2023/12/02 02:37:23;;;;;;;23.52;14.30;;;1.10;99.90;;;;;;5096549;28;20072;-65
2023/12/02 02:39:50;;;;;;;20.35;13.43;;;1.10;99.90;;;;;;5096272;28;20083;-66
2023/12/02 02:42:17;;;;;;;20.88;14.05;;;1.10;99.90;;;;;;5096704;28;20043;-66
2023/12/02 02:44:44;;;;;;;18.90;12.43;;;1.10;99.90;;;;;;5096445;28;20090;-66
2023/12/02 02:47:10;;;;;;;19.17;12.95;;;1.00;99.90;;;;;;5097016;28;20040;-65
2023/12/02 02:49:37;;;;;;;19.95;13.23;;;1.00;99.90;;;;;;5095018;28;20036;-65
2023/12/02 02:52:04;;;;;;;22.42;13.90;;;1.10;99.90;;;;;;5096236;28;20082;-65
2023/12/02 02:54:31;;;;;;;21.63;13.43;;;1.10;99.90;;;;;;5096179;28;20044;-65
2023/12/02 02:56:58;;;;;;;19.73;13.15;;;1.10;99.90;;;;;;5096762;28;20044;-70
2023/12/02 02:59:24;;;;;;;19.75;12.20;;;1.10;99.90;;;;;;5095643;28;20136;-70
2023/12/02 03:01:51;;;;;;;21.13;13.65;;;1.20;99.90;;;;;;5096563;28;20392;-70
2023/12/02 03:04:18;;;;;;;22.40;13.68;;;1.20;99.90;;;;;;5096310;28;20043;-70
2023/12/02 03:06:47;;;;;;;22.15;13.63;;;1.20;99.90;;;;;;5095981;28;20081;-70
2023/12/02 03:09:19;;;;;;;20.08;12.98;;;1.20;99.90;;;;;;5095999;28;20438;-69
2023/12/02 03:11:48;;;;;;;18.17;11.90;;;1.20;99.90;;;;;;5095813;28;20497;-70
2023/12/02 03:14:15;;;;;;;18.98;13.02;;;1.10;99.90;;;;;;5096327;28;20431;-66
2023/12/02 03:16:42;;;;;;;22.77;13.95;;;1.00;99.90;;;;;;5096207;28;20075;-65
2023/12/02 03:19:14;;;;;;;20.33;12.80;;;0.90;99.90;;;;;;5095605;28;20052;-66
2023/12/02 03:21:44;;;;;;;21.10;13.07;;;0.90;99.90;;;;;;5095174;28;20380;-70
2023/12/02 03:24:11;;;;;;;18.73;12.13;;;0.90;99.90;;;;;;5095841;28;20035;-70
2023/12/02 03:26:38;;;;;;;19.45;12.57;;;0.90;99.90;;;;;;5096155;28;20107;-70
2023/12/02 03:29:04;;;;;;;21.42;12.80;;;0.90;99.90;;;;;;5094646;28;20110;-70
2023/12/02 03:31:31;;;;;;;18.85;13.05;;;0.90;99.90;;;;;;5094460;28;20558;-70
2023/12/02 03:33:58;;;;;;;18.67;13.05;;;0.90;99.90;;;;;;5095557;28;20093;-70
2023/12/02 03:36:25;;;;;;;19.83;13.35;;;1.00;99.90;;;;;;5094409;28;20121;-70
2023/12/02 03:38:52;;;;;;;19.95;13.73;;;0.90;99.90;;;;;;5095155;28;20036;-70
2023/12/02 03:41:19;;;;;;;21.75;13.65;;;1.00;99.90;;;;;;5095045;28;20124;-70
2023/12/02 03:43:46;;;;;;;18.70;12.65;;;1.00;99.90;;;;;;5095249;28;20036;-71
2023/12/02 03:46:24;;;;;;;18.65;11.70;;;1.00;99.90;;;;;;5095257;28;20048;-70
2023/12/02 03:48:51;;;;;;;20.58;13.23;;;1.00;99.90;;;;;;5094872;28;20044;-66
2023/12/02 03:51:17;;;;;;;19.52;12.80;;;1.10;99.90;;;;;;5095717;28;20412;-70
2023/12/02 03:53:45;;;;;;;20.25;14.05;;;1.10;99.90;;;;;;5095378;28;20392;-70
2023/12/02 03:56:12;;;;;;;19.13;13.00;;;1.00;99.90;;;;;;5093683;28;20105;-70
2023/12/02 03:58:39;;;;;;;19.42;12.68;;;1.10;99.90;;;;;;5094845;28;20477;-70
2023/12/02 04:01:06;;;;;;;22.08;13.20;;;1.00;99.90;;;;;;5095002;28;20036;-70
2023/12/02 04:03:33;;;;;;;19.50;12.98;;;1.00;99.90;;;;;;5095251;28;20042;-65
2023/12/02 04:06:00;;;;;;;19.23;12.38;;;1.00;99.90;;;;;;5095268;28;20028;-65
2023/12/02 04:08:26;;;;;;;18.45;12.18;;;1.00;99.90;;;;;;5093400;28;20122;-70
2023/12/02 04:10:53;;;;;;;20.35;12.43;;;0.90;99.90;;;;;;5094841;28;20028;-70
2023/12/02 04:13:20;;;;;;;19.73;12.05;;;0.80;99.90;;;;;;5093979;28;20040;-65
2023/12/02 04:15:47;;;;;;;17.60;11.30;;;0.80;99.90;;;;;;5095287;28;20436;-65
2023/12/02 04:18:13;;;;;;;20.60;13.30;;;0.80;99.90;;;;;;5094774;28;20048;-70
2023/12/02 04:20:40;;;;;;;19.95;12.48;;;0.80;99.90;;;;;;5095057;28;20127;-70
2023/12/02 04:23:07;;;;;;;19.55;12.15;;;0.80;99.90;;;;;;5095038;28;20097;-70
2023/12/02 04:25:34;;;;;;;19.30;12.65;;;0.90;99.90;;;;;;5094496;28;20462;-70
2023/12/02 04:28:01;;;;;;;18.40;11.88;;;0.90;99.90;;;;;;5094076;28;20062;-71
2023/12/02 04:30:28;;;;;;;18.95;12.20;;;1.00;99.90;;;;;;5094356;28;20089;-70
2023/12/02 04:32:54;;;;;;;18.88;12.75;;;1.00;99.90;;;;;;5094344;28;20046;-71
2023/12/02 04:35:21;;;;;;;17.45;11.93;;;0.90;99.90;;;;;;5094601;28;20044;-71
2023/12/02 04:37:48;;;;;;;17.30;11.70;;;0.90;99.90;;;;;;5094432;28;20106;-71
2023/12/02 04:40:15;;;;;;;17.42;11.38;;;0.90;99.90;;;;;;5093744;28;20047;-66
2023/12/02 04:42:42;;;;;;;18.20;11.40;;;0.90;99.90;;;;;;5094201;28;20036;-66
2023/12/02 04:45:11;;;;;;;16.85;10.50;;;0.80;99.90;;;;;;5094009;28;20048;-66
2023/12/02 04:47:38;;;;;;;15.77;10.75;;;0.80;99.90;;;;;;5094121;28;20042;-70
2023/12/02 04:50:05;;;;;;;17.27;10.32;;;0.80;99.90;;;;;;5094144;28;20531;-71
2023/12/02 04:52:32;;;;;;;16.52;10.95;;;0.80;99.90;;;;;;5074975;28;20048;-71
2023/12/02 04:54:59;;;;;;;14.35;10.05;;;0.90;99.90;;;;;;5074090;28;20350;-71
2023/12/02 04:57:26;;;;;;;17.30;11.68;;;0.90;99.90;;;;;;5073653;28;20058;-71
2023/12/02 04:59:53;;;;;;;18.25;12.10;;;0.80;99.90;;;;;;5073427;28;20094;-71
2023/12/02 05:02:20;;;;;;;17.50;12.20;;;0.80;99.90;;;;;;5072814;28;20492;-70
2023/12/02 05:04:47;;;;;;;19.33;12.85;;;0.80;99.90;;;;;;5073617;28;20051;-71
2023/12/02 05:07:14;;;;;;;19.13;12.70;;;0.80;99.90;;;;;;5073410;28;20044;-71
2023/12/02 05:09:41;;;;;;;23.83;13.43;;;0.80;99.90;;;;;;5073300;28;20489;-71
2023/12/02 05:12:07;;;;;;;21.75;14.32;;;0.80;99.90;;;;;;5073476;28;20040;-71
2023/12/02 05:14:34;;;;;;;20.45;14.25;;;0.90;99.90;;;;;;5073582;28;20435;-71
2023/12/02 05:17:01;;;;;;;19.33;13.45;;;0.90;99.90;;;;;;5073359;28;20385;-71
2023/12/02 05:19:28;;;;;;;21.80;13.38;;;0.90;99.90;;;;;;5073161;28;20064;-70
2023/12/02 05:21:55;;;;;;;18.75;12.75;;;0.90;99.90;;;;;;5071781;28;20037;-70
2023/12/02 05:24:21;;;;;;;20.95;12.50;;;0.90;99.90;;;;;;5073192;28;20062;-71
2023/12/02 05:26:48;;;;;;;17.40;11.63;;;0.90;99.90;;;;;;5072517;28;20111;-70
2023/12/02 05:29:15;;;;;;;15.65;11.13;;;0.90;99.90;;;;;;5072901;28;20477;-71
2023/12/02 05:31:42;;;;;;;15.43;11.55;;;0.80;99.90;;;;;;5073525;28;20060;-70
2023/12/02 05:34:08;;;;;;;18.00;11.82;;;0.90;99.90;;;;;;5073467;28;20036;-71
2023/12/02 05:36:35;;;;;;;16.13;10.95;;;0.90;99.90;;;;;;5072945;28;20101;-70
2023/12/02 05:39:02;;;;;;;16.55;10.90;;;0.90;99.90;;;;;;5072937;28;20074;-71
2023/12/02 05:41:29;;;;;;;18.23;11.98;;;0.90;99.90;;;;;;5073044;28;20064;-71
2023/12/02 05:43:56;;;;;;;19.05;11.82;;;0.80;99.90;;;;;;5073353;28;20051;-71
2023/12/02 05:46:22;;;;;;;18.08;12.20;;;0.80;99.90;;;;;;5073716;28;20409;-70
2023/12/02 05:48:49;;;;;;;17.15;12.85;;;0.80;99.90;;;;;;5073069;28;20076;-70
2023/12/02 05:51:16;;;;;;;17.65;12.02;;;0.80;99.90;;;;;;5073208;28;20032;-70
2023/12/02 05:53:43;;;;;;;19.15;12.45;;;0.80;99.90;;;;;;5073367;28;20032;-71
2023/12/02 05:56:10;;;;;;;18.20;11.10;;;0.70;99.90;;;;;;5073514;28;20531;-70
2023/12/02 05:58:36;;;;;;;14.95;11.07;;;0.60;99.90;;;;;;5071573;28;20056;-70
2023/12/02 06:01:03;;;;;;;17.00;11.55;;;0.50;99.90;;;;;;5072800;28;20052;-70
2023/12/02 06:03:30;;;;;;;17.60;10.65;;;0.50;99.90;;;;;;5073285;28;20037;-71
2023/12/02 06:05:57;;;;;;;16.17;10.85;;;0.50;99.90;;;;;;5073010;28;20478;-70
2023/12/02 06:08:24;;;;;;;18.75;11.18;;;0.60;99.90;;;;;;5072552;28;20036;-71
2023/12/02 06:10:54;;;;;;;16.52;10.85;;;0.70;99.90;;;;;;5071610;28;20096;-70
2023/12/02 06:13:21;;;;;;;17.17;11.50;;;0.70;99.90;;;;;;5072865;28;20067;-70
2023/12/02 06:15:48;;;;;;;16.73;11.52;;;0.80;99.90;;;;;;5072583;28;20390;-70
2023/12/02 06:18:15;;;;;;;13.93;10.95;;;0.60;99.90;;;;;;5072633;28;20044;-70
2023/12/02 06:20:41;;;;;;;17.17;12.23;;;0.50;99.90;;;;;;5072886;28;20049;-72
2023/12/02 06:23:09;;;;;;;17.85;11.82;;;0.40;99.90;;;;;;5072701;28;20063;-71
2023/12/02 06:25:36;;;;;;;15.70;11.48;;;0.40;99.90;;;;;;5073077;28;20045;-71
2023/12/02 06:28:02;;;;;;;17.38;11.98;;;0.40;99.90;;;;;;5073167;28;20140;-71
2023/12/02 06:30:29;;;;;;;19.10;12.45;;;0.40;99.90;;;;;;5072867;28;20084;-71
2023/12/02 06:32:56;;;;;;;18.73;12.82;;;0.50;99.90;;;;;;5071719;28;20044;-71
2023/12/02 06:35:23;;;;;;;19.67;13.23;;;0.50;99.90;;;;;;5074184;28;20477;-71
2023/12/02 06:37:50;;;;;;;19.10;12.82;;;0.60;99.90;;;;;;5076357;28;20059;-71
2023/12/02 06:40:17;;;;;;;19.55;13.63;;;0.70;99.90;;;;;;5076201;28;20131;-71
2023/12/02 06:42:44;;;;;;;20.08;13.93;;;0.70;99.90;;;;;;5076068;28;20498;-71
2023/12/02 06:45:11;;;;;;;19.98;13.50;;;0.70;99.90;;;;;;5076044;28;20051;-70
2023/12/02 06:47:37;;;;;;;18.95;14.13;;;0.70;99.90;;;;;;5076139;28;20041;-71
2023/12/02 06:50:04;;;;;;;20.98;13.90;;;0.70;99.90;;;;;;5076134;28;20059;-71
2023/12/02 06:52:32;;;;;;;17.73;12.80;;;0.60;99.90;;;;;;5076102;28;20032;-72
2023/12/02 06:54:59;;;;;;;15.48;12.02;;;0.60;99.90;;;;;;5076659;28;20052;-71
2023/12/02 06:57:29;;;;;;;16.88;11.75;;;0.50;99.90;;;;;;5076428;28;20106;-71
2023/12/02 06:59:56;;;;;;;16.77;12.15;;;0.50;99.90;;;;;;5075969;28;20044;-71
2023/12/02 07:02:23;;;;;;;18.27;12.27;;;0.40;99.90;;;;;;5075012;28;20044;-67
2023/12/02 07:04:50;;;;;;;19.27;12.65;;;0.50;99.90;;;;;;5075704;28;20040;-67
2023/12/02 07:07:17;;;;;;;18.20;12.70;;;0.50;99.90;;;;;;5075897;28;20354;-67
2023/12/02 07:09:45;;;;;;;18.45;12.20;;;0.40;99.90;;;;;;5074419;28;20066;-67
2023/12/02 07:12:11;;;;;;;17.30;11.90;;;0.40;99.90;;;;;;5075691;28;20032;-66
2023/12/02 07:14:38;;;;;;;16.25;12.35;;;0.40;99.90;;;;;;5075773;28;20044;-67
2023/12/02 07:17:05;;;;;;;17.35;12.02;;;0.40;99.90;;;;;;5075715;28;20090;-67
2023/12/02 07:19:32;;;;;;;18.27;12.10;;;0.40;99.90;;;;;;5075629;28;20051;-67
2023/12/02 07:21:59;;;;;;;19.73;11.95;;;0.40;99.90;;;;;;5076070;28;20044;-66
2023/12/02 07:24:25;;;;;;;19.58;12.48;;;0.30;99.90;;;;;;5073950;28;20087;-66
2023/12/02 07:26:52;;;;;;;18.05;12.68;;;0.40;99.90;;;;;;5075449;28;20106;-65
2023/12/02 07:29:19;;;;;;;18.60;12.25;;;0.40;99.90;;;;;;5075475;28;20042;-67
2023/12/02 07:31:46;;;;;;;18.63;12.43;;;0.50;99.90;;;;;;5075780;28;20044;-67
2023/12/02 07:34:13;;;;;;;17.75;13.02;;;0.60;99.90;;;;;;5075618;28;20362;-67
2023/12/02 07:36:39;;;;;;;18.25;13.32;;;0.60;99.90;;;;;;5075812;28;20508;-67
2023/12/02 07:39:06;;;;;;;17.48;12.82;;;0.50;99.90;;;;;;5075579;28;20047;-67
2023/12/02 07:41:33;;;;;;;18.60;11.98;;;0.60;99.90;;;;;;5073743;28;20056;-67
2023/12/02 07:44:00;;;;;;;17.52;12.63;;;0.60;99.90;;;;;;5074228;28;20090;-65
2023/12/02 07:46:27;;;;;;;17.63;12.13;;;0.60;99.90;;;;;;5075047;28;20036;-67
2023/12/02 07:48:56;;;;;;;16.63;11.68;;;0.70;99.90;;;;;;5074960;28;20037;-71
2023/12/02 07:51:26;;;;;;;17.80;12.70;;;0.60;99.90;;;;;;5075052;28;20040;-71
2023/12/02 07:53:53;;;;;;;18.67;11.48;;;0.60;99.90;;;;;;5073595;28;20078;-71
2023/12/02 07:56:20;;;;;;;15.82;11.77;;;0.60;99.90;;;;;;5073946;28;20094;-66
2023/12/02 07:58:47;;;;;;;18.05;12.82;;;0.60;99.90;;;;;;5074730;28;20411;-65
2023/12/02 08:01:14;;;;;;;17.42;12.30;;;0.60;99.90;;;;;;5074726;28;20043;-66
2023/12/02 08:03:41;;;;;;;16.00;11.98;;;0.60;99.90;;;;;;5074689;28;20521;-67
2023/12/02 08:06:08;;;;;;;15.95;12.43;;;0.60;99.90;;;;;;5075067;28;20036;-66
2023/12/02 08:08:34;;;;;;;18.45;12.68;;;0.60;99.90;;;;;;5074367;28;20477;-66
2023/12/02 08:11:01;;;;;;;17.42;11.50;;;0.60;99.90;;;;;;5074680;28;20036;-66
2023/12/02 08:13:28;;;;;;;16.35;11.63;;;0.60;99.90;;;;;;5074898;28;20435;-66
2023/12/02 08:15:55;;;;;;;16.50;12.18;;;0.50;99.90;;;;;;5074347;28;20044;-66
2023/12/02 08:18:21;;;;;;;18.15;12.18;;;0.40;99.90;;;;;;5074119;28;20040;-66
2023/12/02 08:20:48;;;;;;;18.80;12.00;;;0.40;99.90;;;;;;5074576;28;20058;-71
2023/12/02 08:23:15;;;;;;;16.23;12.23;;;0.40;99.90;;;;;;5074053;28;20040;-71
2023/12/02 08:25:42;;;;;;;18.77;13.23;;;0.40;99.90;;;;;;5074339;28;20044;-71
2023/12/02 08:28:09;;;;;;;19.95;12.20;;;0.40;99.90;;;;;;5074104;28;20082;-71
2023/12/02 08:30:36;;;;;;;18.77;12.98;;;0.40;99.90;;;;;;5074361;28;20047;-71
2023/12/02 08:33:03;;;;;;;18.75;13.38;;;0.40;99.90;;;;;;5074551;28;20493;-71
2023/12/02 08:35:31;;;;;;;17.73;13.30;;;0.50;99.90;;;;;;5074593;28;20072;-69
2023/12/02 08:37:58;;;;;;;15.95;12.30;;;0.50;99.90;;;;;;5072889;28;20569;-65
2023/12/02 08:40:25;;;;;;;15.60;12.23;;;0.50;99.90;;;;;;5074102;28;20049;-70
2023/12/02 08:42:51;;;;;;;16.13;12.10;;;0.60;99.90;;;;;;5074393;28;20072;-70
2023/12/02 08:45:18;;;;;;;18.13;12.65;;;0.60;99.90;;;;;;5074119;28;20505;-70
2023/12/02 08:47:45;;;;;;;17.05;13.27;;;0.60;99.90;;;;;;5074435;28;20132;-70
2023/12/02 08:50:12;;;;;;;16.42;12.35;;;0.60;99.90;;;;;;5073824;28;20111;-65
2023/12/02 08:52:39;;;;;;;16.50;12.18;;;0.60;99.90;;;;;;5072582;28;20040;-64
2023/12/02 08:55:05;;;;;;;16.45;11.77;;;0.60;99.90;;;;;;5072844;28;20045;-64
2023/12/02 08:57:32;;;;;;;17.20;12.40;;;0.60;99.90;;;;;;5073668;28;20041;-64
2023/12/02 08:59:59;;;;;;;15.98;12.27;;;0.60;99.90;;;;;;5074345;28;20093;-64
2023/12/02 09:02:26;;;;;;;17.45;12.82;;;0.60;99.90;;;;;;5072375;28;20457;-65
2023/12/02 09:04:52;;;;;;;16.63;12.23;;;0.60;99.90;;;;;;5073615;28;20086;-65
2023/12/02 09:07:19;;;;;;;18.40;13.05;;;0.60;99.90;;;;;;5073824;28;20044;-65
2023/12/02 09:09:46;;;;;;;17.70;12.63;;;0.60;99.90;;;;;;5073634;28;20390;-70
2023/12/02 09:12:13;;;;;;;21.65;13.45;;;0.60;99.90;;;;;;5073973;28;20037;-70
2023/12/02 09:14:40;;;;;;;15.85;12.50;;;0.50;99.90;;;;;;5074048;28;20474;-71
2023/12/02 09:17:07;;;;;;;16.38;11.70;;;0.50;99.90;;;;;;5074092;28;20049;-65
2023/12/02 09:19:34;;;;;;;16.77;11.95;;;0.50;99.90;;;;;;5073514;28;20119;-66
2023/12/02 09:22:00;;;;;;;15.95;11.50;;;0.50;99.90;;;;;;5072194;28;20135;-70
2023/12/02 09:24:28;;;;;;;14.80;10.85;;;0.50;99.90;;;;;;5073460;28;20040;-70
2023/12/02 09:26:54;;;;;;;13.55;10.05;;;0.40;99.90;;;;;;5073748;28;20485;-69
2023/12/02 09:29:21;;;;;;;14.95;11.23;;;0.40;99.90;;;;;;5073828;28;20381;-71
2023/12/02 09:31:48;;;;;;;16.92;11.25;;;0.50;99.90;;;;;;5073602;28;20067;-65
2023/12/02 09:34:15;;;;;;;17.20;12.38;;;0.50;99.90;;;;;;5083794;28;20437;-65
2023/12/02 09:36:41;;;;;;;18.52;12.40;;;0.60;99.90;;;;;;5093856;28;20040;-64
2023/12/02 09:39:09;;;;;;;15.55;12.30;;;0.70;99.90;;;;;;5093540;28;20044;-70
2023/12/02 09:41:37;;;;;;;15.20;12.30;;;0.60;99.90;;;;;;5093783;28;20113;-65
2023/12/02 09:44:03;;;;;;;21.85;12.48;;;0.60;99.90;;;;;;5093280;28;20089;-65
2023/12/02 09:46:30;;;;;;;17.35;12.75;;;0.60;99.90;;;;;;5092237;28;20135;-64
2023/12/02 09:48:57;;;;;;;20.08;14.13;;;0.70;99.90;;;;;;5092072;28;20127;-65
2023/12/02 09:51:24;;;;;;;18.08;13.82;;;0.70;99.90;;;;;;5093484;28;20093;-65
2023/12/02 09:53:51;;;;;;;18.58;12.75;;;0.70;99.90;;;;;;5094318;28;20044;-64
2023/12/02 09:56:18;;;;;;;22.58;13.90;;;0.70;99.90;;;;;;5094154;28;20040;-69
2023/12/02 09:58:48;;;;;;;18.25;14.02;;;0.80;99.90;;;;;;5094875;28;20055;-65
2023/12/02 10:01:14;;;;;;;21.15;14.82;;;0.80;99.90;;;;;;5093357;28;20593;-71
2023/12/02 10:03:41;;;;;;;20.98;14.20;;;0.60;99.90;;;;;;5093651;28;20040;-70
2023/12/02 10:06:09;;;;;;;19.77;14.40;;;0.60;99.90;;;;;;5092455;28;20065;-69
2023/12/02 10:08:36;;;;;;;21.02;15.13;;;0.70;99.90;;;;;;5093417;28;20043;-64
2023/12/02 10:11:02;;;;;;;20.40;14.70;;;0.70;99.90;;;;;;5095685;28;20044;-66
2023/12/02 10:13:29;;;;;;;21.67;15.10;;;0.80;99.90;;;;;;5097620;28;20047;-65
2023/12/02 10:15:56;;;;;;;22.15;15.95;;;0.90;99.90;;;;;;5095663;28;20113;-72
2023/12/02 10:18:23;;;;;;;23.08;15.65;;;0.90;99.90;;;;;;5097518;28;20048;-65
2023/12/02 10:20:50;;;;;;;21.90;15.35;;;0.90;99.90;;;;;;5097489;28;20392;-69
2023/12/02 10:23:17;;;;;;;21.20;15.15;;;0.90;99.90;;;;;;5097399;28;20036;-64
2023/12/02 10:25:44;;;;;;;22.27;15.27;;;0.90;99.90;;;;;;5097141;28;20044;-70
2023/12/02 10:28:12;;;;;;;21.83;14.75;;;0.90;99.90;;;;;;5097726;28;20047;-70
2023/12/02 10:30:38;;;;;;;22.63;15.80;;;0.90;99.90;;;;;;5096873;28;20044;-65
2023/12/02 10:33:05;;;;;;;22.40;16.35;;;0.90;99.90;;;;;;5097519;28;20109;-65
2023/12/02 10:35:32;;;;;;;23.08;15.57;;;0.90;99.90;;;;;;5097090;28;20119;-69
2023/12/02 10:37:59;;;;;;;21.73;15.20;;;0.90;99.90;;;;;;5095783;28;20078;-70
2023/12/02 10:40:26;;;;;;;24.35;16.65;;;0.90;99.90;;;;;;5096652;28;20056;-69
2023/12/02 10:42:53;;;;;;;23.15;15.68;;;0.90;99.90;;;;;;5097107;28;20126;-70
2023/12/02 10:45:20;;;;;;;23.10;15.27;;;0.90;99.90;;;;;;5097001;28;20071;-70
2023/12/02 10:47:49;;;;;;;23.45;16.23;;;0.90;99.90;;;;;;5077834;28;20065;-70
2023/12/02 10:50:16;;;;;;;24.35;16.00;;;0.90;99.90;;;;;;5095609;28;20066;-69
2023/12/02 10:52:43;;;;;;;22.90;16.48;;;0.90;99.90;;;;;;5096989;28;20066;-70
2023/12/02 10:55:10;;;;;;;23.77;17.42;;;0.70;99.90;;;;;;5095139;28;20068;-69
2023/12/02 10:57:37;;;;;;;21.48;15.38;;;0.80;99.90;;;;;;5096881;28;20040;-69
2023/12/02 11:00:07;;;;;;;27.50;17.33;;;0.70;99.90;;;;;;5096598;28;20113;-69
2023/12/02 11:02:34;;;;;;;24.02;17.25;;;0.60;99.90;;;;;;5078491;28;20047;-64
2023/12/02 11:05:03;;;;;;;24.15;17.33;;;0.70;99.90;;;;;;5076111;28;20071;-69
2023/12/02 11:07:29;;;;;;;26.95;18.33;;;0.70;99.90;;;;;;5076035;28;20040;-69
2023/12/02 11:09:57;;;;;;;24.65;17.02;;;0.60;99.90;;;;;;5076117;28;20040;-65
2023/12/02 11:12:24;;;;;;;27.58;17.92;;;0.70;99.90;;;;;;5074859;28;20436;-70
2023/12/02 11:14:52;;;;;;;26.80;19.02;;;0.80;99.90;;;;;;5060794;28;20678;-70
2023/12/02 11:17:19;;;;;;;23.65;17.20;;;0.90;99.90;;;;;;5081414;28;20473;-69
2023/12/02 11:19:45;;;;;;;30.25;20.17;;;1.00;99.90;;;;;;5081796;28;20036;-70
2023/12/02 11:22:12;;;;;;;32.25;21.05;;;1.10;99.90;;;;;;5078098;28;20062;-69
2023/12/02 11:24:39;;;;;;;35.50;21.15;;;1.20;99.90;;;;;;5090658;28;20472;-69
2023/12/02 11:27:06;;;;;;;31.30;21.13;;;1.20;99.90;;;;;;5095150;28;20036;-65
2023/12/02 11:29:32;;;;;;;31.92;21.48;;;1.30;99.90;;;;;;5094463;28;20086;-64
2023/12/02 11:31:59;;;;;;;28.35;19.42;;;1.30;99.90;;;;;;5095910;28;20040;-70
2023/12/02 11:34:26;;;;;;;29.67;19.58;;;1.30;99.90;;;;;;5094334;28;20097;-64
2023/12/02 11:36:53;;;;;;;31.55;21.58;;;1.30;99.90;;;;;;5093458;28;20082;-65
2023/12/02 11:39:21;;;;;;;25.65;18.13;;;1.30;99.90;;;;;;5095014;28;20076;-69
2023/12/02 11:41:48;;;;;;;25.45;17.63;;;1.30;99.90;;;;;;5093435;28;20059;-70
2023/12/02 11:44:15;;;;;;;26.90;18.63;;;1.30;99.90;;;;;;5094164;28;20376;-70
2023/12/02 11:46:42;;;;;;;27.38;18.23;;;1.30;99.90;;;;;;5092356;28;20043;-66
2023/12/02 11:49:08;;;;;;;28.63;18.63;;;1.40;99.90;;;;;;5091988;28;20040;-71
2023/12/02 11:51:35;;;;;;;29.08;19.13;;;1.40;99.90;;;;;;5093438;28;20044;-65
2023/12/02 11:54:02;;;;;;;29.55;19.10;;;1.40;99.90;;;;;;5093689;28;20069;-65
2023/12/02 11:56:29;;;;;;;33.15;20.10;;;1.40;99.90;;;;;;5093993;28;20048;-70
2023/12/02 11:58:58;;;;;;;29.73;19.27;;;1.50;99.90;;;;;;5094079;28;20389;-70
2023/12/02 12:01:25;;;;;;;29.98;18.65;;;1.30;99.90;;;;;;5095359;28;20119;-66
2023/12/02 12:03:52;;;;;;;27.42;17.25;;;1.20;99.90;;;;;;5095366;28;20047;-64
2023/12/02 12:06:19;;;;;;;27.65;17.60;;;1.10;99.90;;;;;;5095106;28;20050;-71
2023/12/02 12:08:46;;;;;;;27.88;18.38;;;1.00;99.90;;;;;;5095033;28;20044;-65
2023/12/02 12:11:13;;;;;;;31.50;19.33;;;1.00;99.90;;;;;;5093934;28;20040;-64
2023/12/02 12:13:40;;;;;;;29.65;18.77;;;1.10;99.90;;;;;;5095169;28;20392;-70
2023/12/02 12:16:07;;;;;;;26.35;18.35;;;1.10;99.90;;;;;;5094870;28;20062;-70
2023/12/02 12:18:33;;;;;;;28.08;17.60;;;1.20;99.90;;;;;;5094733;28;20048;-70
2023/12/02 12:21:01;;;;;;;27.15;17.33;;;1.30;99.90;;;;;;5095123;28;20040;-64
2023/12/02 12:23:28;;;;;;;30.23;17.05;;;1.30;99.90;;;;;;5094978;28;20044;-65
2023/12/02 12:25:55;;;;;;;29.67;17.88;;;1.30;99.90;;;;;;5095249;28;20457;-65
2023/12/02 12:28:22;;;;;;;28.40;16.40;;;1.50;99.90;;;;;;5094551;28;20040;-70
2023/12/02 12:30:48;;;;;;;26.10;16.35;;;1.50;99.90;;;;;;5095013;28;20040;-64
2023/12/02 12:33:15;;;;;;;23.63;15.52;;;1.50;99.90;;;;;;5092445;28;20435;-65